^^
Saratoga-Weather Station Historical Data
Daily Summary for July 01, 2022 Units:  Metric    English   Both
Daily Weekly Monthly Yearly Custom
  High: Low: Average:
Temperature: 21.9 °C 12.4 °C 16.6 °C
Dew Point: 13 °C 9.7 °C 11.2 °C
Humidity: 92% 46% 73%
Wind Speed: 20.9km/h 0km/h 3.8km/h
Wind Gust: 22.5km/h - -
Wind- - West
Pressure: 1021.3 hPa 1015.2 hPa -
Precipitation: 0.0 mm    
Historical Graphs
 
 
Tabular Data for July 01, 2022
Time Temperature Dew Point Pressure Wind Wind Speed Wind Gust Humidity Rainfall Rate (Hourly) solar
00:00 13.2 °C 11.9 °C 1015.6 hPa West 1.4 km/h 4.8 km/h 92% 0.0 mm 0 W/m2
00:05 13.2 °C 11.9 °C 1015.9 hPa WNW 4.7 km/h 4.8 km/h 92% 0.0 mm 0 W/m2
00:10 13.2 °C 11.9 °C 1015.6 hPa WNW 3.2 km/h 4.8 km/h 92% 0.0 mm 0 W/m2
00:15 13.2 °C 11.9 °C 1015.9 hPa West 4.7 km/h 9.7 km/h 92% 0.0 mm 0 W/m2
00:20 13.2 °C 11.9 °C 1015.9 hPa Calm   9.7 km/h 92% 0.0 mm 0 W/m2
00:25 13.2 °C 11.9 °C 1015.6 hPa WNW 3.2 km/h 4.8 km/h 92% 0.0 mm 0 W/m2
00:30 13.2 °C 11.9 °C 1015.6 hPa WNW 3.2 km/h 8 km/h 92% 0.0 mm 0 W/m2
00:35 13.2 °C 11.9 °C 1015.9 hPa Calm   3.2 km/h 92% 0.0 mm 0 W/m2
00:40 13.2 °C 11.9 °C 1015.9 hPa Calm   1.6 km/h 92% 0.0 mm 0 W/m2
00:45 13.2 °C 11.9 °C 1015.9 hPa NW 1.4 km/h 3.2 km/h 92% 0.0 mm 0 W/m2
00:50 13.2 °C 11.9 °C 1015.9 hPa NW 3.2 km/h 3.2 km/h 92% 0.0 mm 0 W/m2
00:55 13.2 °C 11.9 °C 1015.9 hPa Calm   3.2 km/h 92% 0.0 mm 0 W/m2
01:00 13.2 °C 11.9 °C 1015.6 hPa Calm     92% 0.0 mm 0 W/m2
01:05 13.2 °C 11.9 °C 1015.6 hPa NW 1.4 km/h 1.6 km/h 92% 0.0 mm 0 W/m2
01:10 13.2 °C 11.9 °C 1015.6 hPa Calm   1.6 km/h 92% 0.0 mm 0 W/m2
01:15 13.2 °C 11.9 °C 1015.6 hPa Calm     92% 0.0 mm 0 W/m2
01:20 13.2 °C 11.9 °C 1015.2 hPa Calm     92% 0.0 mm 0 W/m2
01:25 13.2 °C 11.9 °C 1015.2 hPa NW 3.2 km/h 4.8 km/h 92% 0.0 mm 0 W/m2
01:30 13.2 °C 11.9 °C 1015.2 hPa WNW 3.2 km/h 3.2 km/h 92% 0.0 mm 0 W/m2
01:35 13.2 °C 11.9 °C 1015.2 hPa West 3.2 km/h 4.8 km/h 92% 0.0 mm 0 W/m2
01:40 13.2 °C 11.9 °C 1015.2 hPa West 3.2 km/h 6.4 km/h 92% 0.0 mm 0 W/m2
01:45 13.1 °C 11.8 °C 1015.6 hPa West 3.2 km/h 3.2 km/h 92% 0.0 mm 0 W/m2
01:50 13.1 °C 11.8 °C 1015.6 hPa WSW 6.4 km/h 11.3 km/h 92% 0.0 mm 0 W/m2
01:55 13.1 °C 11.8 °C 1015.6 hPa WNW 4.7 km/h 6.4 km/h 92% 0.0 mm 0 W/m2
02:00 13.1 °C 11.8 °C 1015.6 hPa WSW 1.4 km/h 6.4 km/h 92% 0.0 mm 0 W/m2
02:05 13.1 °C 11.7 °C 1015.9 hPa West 3.2 km/h 6.4 km/h 91% 0.0 mm 0 W/m2
02:10 13.1 °C 11.8 °C 1016.3 hPa West 1.4 km/h 3.2 km/h 92% 0.0 mm 0 W/m2
02:15 13 °C 11.7 °C 1016.3 hPa West 6.4 km/h 6.4 km/h 92% 0.0 mm 0 W/m2
02:20 13 °C 11.7 °C 1016.3 hPa West 3.2 km/h 4.8 km/h 92% 0.0 mm 0 W/m2
02:25 13 °C 11.7 °C 1016.3 hPa West 1.4 km/h 4.8 km/h 92% 0.0 mm 0 W/m2
02:30 13 °C 11.7 °C 1016.3 hPa WNW 4.7 km/h 8 km/h 92% 0.0 mm 0 W/m2
02:35 13 °C 11.7 °C 1016.3 hPa West 3.2 km/h 4.8 km/h 92% 0.0 mm 0 W/m2
02:40 12.9 °C 11.6 °C 1016.6 hPa West 4.7 km/h 6.4 km/h 92% 0.0 mm 0 W/m2
02:45 12.9 °C 11.6 °C 1016.6 hPa WSW 3.2 km/h 6.4 km/h 92% 0.0 mm 0 W/m2
02:50 12.8 °C 11.5 °C 1016.6 hPa WNW 4.7 km/h 9.7 km/h 92% 0.0 mm 0 W/m2
02:55 12.8 °C 11.5 °C 1016.3 hPa WNW 1.4 km/h 6.4 km/h 92% 0.0 mm 0 W/m2
03:00 12.8 °C 11.5 °C 1016.3 hPa Calm   1.6 km/h 92% 0.0 mm 0 W/m2
03:05 12.8 °C 11.5 °C 1016.3 hPa WSW 3.2 km/h 3.2 km/h 92% 0.0 mm 0 W/m2
03:10 12.8 °C 11.5 °C 1016.6 hPa Calm   3.2 km/h 92% 0.0 mm 0 W/m2
03:15 12.8 °C 11.5 °C 1016.6 hPa WNW 1.4 km/h 3.2 km/h 92% 0.0 mm 0 W/m2
03:20 12.8 °C 11.5 °C 1016.6 hPa East 3.2 km/h 3.2 km/h 92% 0.0 mm 0 W/m2
03:25 12.8 °C 11.5 °C 1016.6 hPa WNW 1.4 km/h 4.8 km/h 92% 0.0 mm 0 W/m2
03:30 12.8 °C 11.5 °C 1016.6 hPa Calm   3.2 km/h 92% 0.0 mm 0 W/m2
03:35 12.8 °C 11.5 °C 1016.9 hPa Calm   4.8 km/h 92% 0.0 mm 0 W/m2
03:40 12.8 °C 11.5 °C 1016.9 hPa West 3.2 km/h 6.4 km/h 92% 0.0 mm 0 W/m2
03:45 12.8 °C 11.4 °C 1016.9 hPa WSW 1.4 km/h 1.6 km/h 91% 0.0 mm 0 W/m2
03:50 12.8 °C 11.5 °C 1016.6 hPa NW 3.2 km/h 6.4 km/h 92% 0.0 mm 0 W/m2
03:55 12.8 °C 11.4 °C 1016.6 hPa NW 1.4 km/h 4.8 km/h 91% 0.0 mm 0 W/m2
04:01 12.8 °C 11.4 °C 1016.3 hPa NW 1.4 km/h 3.2 km/h 91% 0.0 mm 0 W/m2
04:06 12.8 °C 11.5 °C 1016.3 hPa Calm   4.8 km/h 92% 0.0 mm 0 W/m2
04:11 12.7 °C 11.4 °C 1016.3 hPa Calm   4.8 km/h 92% 0.0 mm 0 W/m2
04:16 12.7 °C 11.4 °C 1016.3 hPa Calm   1.6 km/h 92% 0.0 mm 0 W/m2
04:21 12.7 °C 11.4 °C 1016.3 hPa Calm   3.2 km/h 92% 0.0 mm 0 W/m2
04:26 12.7 °C 11.4 °C 1016.6 hPa ESE 3.2 km/h 4.8 km/h 92% 0.0 mm 0 W/m2
04:31 12.7 °C 11.4 °C 1016.9 hPa East 3.2 km/h 6.4 km/h 92% 0.0 mm 0 W/m2
04:36 12.7 °C 11.4 °C 1016.9 hPa Calm     92% 0.0 mm 0 W/m2
04:41 12.7 °C 11.4 °C 1016.9 hPa East 1.4 km/h 4.8 km/h 92% 0.0 mm 0 W/m2
04:46 12.7 °C 11.4 °C 1016.6 hPa Calm   1.6 km/h 92% 0.0 mm 0 W/m2
04:51 12.6 °C 11.3 °C 1016.9 hPa East 1.4 km/h 1.6 km/h 92% 0.0 mm 0 W/m2
04:56 12.6 °C 11.3 °C 1016.9 hPa East 1.4 km/h 3.2 km/h 92% 0.0 mm 0 W/m2
05:01 12.6 °C 11.3 °C 1016.9 hPa NE 1.4 km/h 3.2 km/h 92% 0.0 mm 0 W/m2
05:06 12.6 °C 11.3 °C 1016.9 hPa NNE 1.4 km/h 4.8 km/h 92% 0.0 mm 0 W/m2
05:11 12.5 °C 11.2 °C 1016.9 hPa NNE 1.4 km/h 3.2 km/h 92% 0.0 mm 0 W/m2
05:16 12.5 °C 11.2 °C 1016.6 hPa Calm   1.6 km/h 92% 0.0 mm 0 W/m2
05:21 12.5 °C 11.2 °C 1016.6 hPa WNW 1.4 km/h 1.6 km/h 92% 0.0 mm 0 W/m2
05:26 12.5 °C 11.2 °C 1016.6 hPa SW 1.4 km/h 3.2 km/h 92% 0.0 mm 0 W/m2
05:31 12.4 °C 11.1 °C 1016.6 hPa SW 1.4 km/h 3.2 km/h 92% 0.0 mm 0 W/m2
05:36 12.5 °C 11.2 °C 1016.6 hPa SW 3.2 km/h 3.2 km/h 92% 0.0 mm 0 W/m2
05:41 12.5 °C 11.2 °C 1016.6 hPa SW 3.2 km/h 3.2 km/h 92% 0.0 mm 0 W/m2
05:46 12.6 °C 11.3 °C 1016.3 hPa NW 1.4 km/h 4.8 km/h 92% 0.0 mm 0 W/m2
05:51 12.6 °C 11.3 °C 1016.6 hPa West 4.7 km/h 6.4 km/h 92% 0.0 mm 5 W/m2
05:56 12.6 °C 11.3 °C 1016.6 hPa WNW 4.7 km/h 6.4 km/h 92% 0.0 mm 9 W/m2
06:01 12.6 °C 11.3 °C 1016.6 hPa WSW 3.2 km/h 4.8 km/h 92% 0.0 mm 11 W/m2
06:06 12.7 °C 11.4 °C 1016.6 hPa West 3.2 km/h 8 km/h 92% 0.0 mm 12 W/m2
06:11 12.7 °C 11.4 °C 1016.6 hPa West 4.7 km/h 4.8 km/h 92% 0.0 mm 23 W/m2
06:16 12.7 °C 11.4 °C 1016.6 hPa WSW 3.2 km/h 3.2 km/h 92% 0.0 mm 33 W/m2
06:21 12.7 °C 11.4 °C 1016.6 hPa Calm   4.8 km/h 92% 0.0 mm 32 W/m2
06:26 12.8 °C 11.5 °C 1016.6 hPa West 6.4 km/h 6.4 km/h 92% 0.0 mm 47 W/m2
06:31 12.8 °C 11.5 °C 1016.9 hPa NNW 3.2 km/h 4.8 km/h 92% 0.0 mm 58 W/m2
06:36 12.9 °C 11.6 °C 1016.9 hPa NNW 3.2 km/h 6.4 km/h 92% 0.0 mm 53 W/m2
06:41 13 °C 11.7 °C 1016.9 hPa NW 4.7 km/h 4.8 km/h 92% 0.0 mm 40 W/m2
06:46 13.1 °C 11.8 °C 1016.9 hPa SSW 4.7 km/h 8 km/h 92% 0.0 mm 39 W/m2
06:51 13.1 °C 11.8 °C 1016.9 hPa WNW 1.4 km/h 4.8 km/h 92% 0.0 mm 49 W/m2
06:56 13.1 °C 11.8 °C 1016.9 hPa WNW 3.2 km/h 6.4 km/h 92% 0.0 mm 65 W/m2
07:01 13.2 °C 11.9 °C 1016.6 hPa NW 3.2 km/h 8 km/h 92% 0.0 mm 69 W/m2
07:06 13.2 °C 11.8 °C 1016.9 hPa WSW 3.2 km/h 6.4 km/h 91% 0.0 mm 69 W/m2
07:11 13.2 °C 11.8 °C 1016.9 hPa West 1.4 km/h 11.3 km/h 91% 0.0 mm 84 W/m2
07:16 13.2 °C 11.8 °C 1016.9 hPa NW 6.4 km/h 6.4 km/h 91% 0.0 mm 93 W/m2
07:21 13.3 °C 11.9 °C 1016.9 hPa WNW 1.4 km/h 11.3 km/h 91% 0.0 mm 77 W/m2
07:26 13.3 °C 11.9 °C 1017.3 hPa WNW 1.4 km/h 8 km/h 91% 0.0 mm 72 W/m2
07:31 13.4 °C 12 °C 1017.3 hPa WNW 3.2 km/h 4.8 km/h 91% 0.0 mm 74 W/m2
07:36 13.4 °C 12 °C 1017.3 hPa NNW 1.4 km/h 8 km/h 91% 0.0 mm 81 W/m2
07:41 13.4 °C 12 °C 1017.6 hPa East 3.2 km/h 3.2 km/h 91% 0.0 mm 49 W/m2
07:46 13.5 °C 11.9 °C 1017.3 hPa WNW 3.2 km/h 6.4 km/h 90% 0.0 mm 84 W/m2
07:51 13.6 °C 12.2 °C 1017.6 hPa Calm     91% 0.0 mm 118 W/m2
07:56 13.7 °C 12.3 °C 1017.3 hPa Calm   6.4 km/h 91% 0.0 mm 142 W/m2
08:01 13.8 °C 12.2 °C 1017.6 hPa NW 6.4 km/h 6.4 km/h 90% 0.0 mm 116 W/m2
08:06 13.9 °C 12.3 °C 1017.6 hPa Calm   4.8 km/h 90% 0.0 mm 83 W/m2
08:11 13.9 °C 12.1 °C 1017.6 hPa West 3.2 km/h 6.4 km/h 89% 0.0 mm 91 W/m2
08:16 13.9 °C 12.1 °C 1017.6 hPa WNW 1.4 km/h 3.2 km/h 89% 0.0 mm 139 W/m2
08:21 14 °C 12.2 °C 1017.6 hPa West 1.4 km/h 6.4 km/h 89% 0.0 mm 58 W/m2
08:26 14 °C 12 °C 1017.6 hPa Calm   4.8 km/h 88% 0.0 mm 153 W/m2
08:31 14.1 °C 12.1 °C 1017.6 hPa Calm   6.4 km/h 88% 0.0 mm 195 W/m2
08:36 14.2 °C 12.4 °C 1017.6 hPa WNW 1.4 km/h 3.2 km/h 89% 0.0 mm 169 W/m2
08:41 14.6 °C 12.5 °C 1017.3 hPa WNW 3.2 km/h 9.7 km/h 87% 0.0 mm 56 W/m2
08:46 14.6 °C 12.3 °C 1017.6 hPa WSW 7.9 km/h 11.3 km/h 86% 0.0 mm 144 W/m2
08:51 14.4 °C 12.1 °C 1017.6 hPa SSW 7.9 km/h 8 km/h 86% 0.0 mm 60 W/m2
08:56 14.3 °C 11.8 °C 1017.6 hPa West 4.7 km/h 6.4 km/h 85% 0.0 mm 58 W/m2
09:01 14.3 °C 12 °C 1017.6 hPa WSW 6.4 km/h 8 km/h 86% 0.0 mm 225 W/m2
09:06 14.5 °C 12.2 °C 1017.6 hPa NW 1.4 km/h 11.3 km/h 86% 0.0 mm 207 W/m2
09:11 14.7 °C 12.2 °C 1018.0 hPa WSW 6.4 km/h 9.7 km/h 85% 0.0 mm 116 W/m2
09:16 14.7 °C 12.2 °C 1018.0 hPa West 3.2 km/h 9.7 km/h 85% 0.0 mm 93 W/m2
09:21 14.5 °C 12 °C 1018.0 hPa WNW 1.4 km/h 6.4 km/h 85% 0.0 mm 204 W/m2
09:26 14.6 °C 12.3 °C 1018.0 hPa WNW 4.7 km/h 11.3 km/h 86% 0.0 mm 151 W/m2
09:31 14.6 °C 12.1 °C 1018.0 hPa WNW 3.2 km/h 4.8 km/h 85% 0.0 mm 171 W/m2
09:36 14.7 °C 12 °C 1018.0 hPa NNW 7.9 km/h 11.3 km/h 84% 0.0 mm 160 W/m2
09:41 14.8 °C 12.1 °C 1018.0 hPa West 1.4 km/h 9.7 km/h 84% 0.0 mm 102 W/m2
09:46 15.3 °C 12.4 °C 1018.0 hPa West 1.4 km/h 6.4 km/h 83% 0.0 mm 113 W/m2
09:51 15.7 °C 12.4 °C 1018.0 hPa WSW 6.4 km/h 12.9 km/h 81% 0.0 mm 279 W/m2
09:56 15.9 °C 12.5 °C 1018.0 hPa South 3.2 km/h 6.4 km/h 80% 0.0 mm 214 W/m2
10:01 16 °C 12.4 °C 1018.0 hPa WNW 4.7 km/h 4.8 km/h 79% 0.0 mm 638 W/m2
10:06 16.2 °C 12.4 °C 1018.0 hPa NW 4.7 km/h 12.9 km/h 78% 0.0 mm 197 W/m2
10:11 16.2 °C 12.4 °C 1018.0 hPa West 6.4 km/h 9.7 km/h 78% 0.0 mm 137 W/m2
10:16 15.9 °C 12.1 °C 1018.0 hPa WNW 4.7 km/h 6.4 km/h 78% 0.0 mm 234 W/m2
10:21 15.9 °C 12.1 °C 1018.0 hPa WNW 4.7 km/h 11.3 km/h 78% 0.0 mm 148 W/m2
10:26 15.8 °C 12 °C 1018.3 hPa West 3.2 km/h 9.7 km/h 78% 0.0 mm 185 W/m2
10:31 15.8 °C 12.2 °C 1018.0 hPa NNW 4.7 km/h 8 km/h 79% 0.0 mm 664 W/m2
10:36 16.2 °C 12.6 °C 1018.0 hPa NW 1.4 km/h 11.3 km/h 79% 0.0 mm 726 W/m2
10:41 16.4 °C 12.6 °C 1018.3 hPa WSW 4.7 km/h 6.4 km/h 78% 0.0 mm 800 W/m2
10:46 16.8 °C 12.9 °C 1018.3 hPa WNW 13 km/h 16.1 km/h 78% 0.0 mm 756 W/m2
10:51 16.9 °C 13 °C 1018.3 hPa ENE 3.2 km/h 4.8 km/h 78% 0.0 mm 726 W/m2
10:56 17.2 °C 12.5 °C 1018.3 hPa WSW 1.4 km/h 11.3 km/h 74% 0.0 mm 752 W/m2
11:01 17.4 °C 12.7 °C 1018.3 hPa WNW 14.3 km/h 14.5 km/h 74% 0.0 mm 842 W/m2
11:06 17.6 °C 12.3 °C 1018.3 hPa NNW 6.4 km/h 11.3 km/h 71% 0.0 mm 877 W/m2
11:11 17.6 °C 12.3 °C 1018.3 hPa NW 6.4 km/h 9.7 km/h 71% 0.0 mm 904 W/m2
11:16 17.4 °C 11.4 °C 1018.3 hPa WNW 6.4 km/h 11.3 km/h 68% 0.0 mm 156 W/m2
11:21 17.3 °C 12 °C 1018.6 hPa WNW 11.1 km/h 12.9 km/h 71% 0.0 mm 120 W/m2
11:26 17 °C 11.9 °C 1018.6 hPa WNW 6.4 km/h 11.3 km/h 72% 0.0 mm 188 W/m2
11:31 16.9 °C 12 °C 1018.6 hPa WSW 6.4 km/h 11.3 km/h 73% 0.0 mm 192 W/m2
11:36 16.9 °C 12.2 °C 1018.3 hPa WNW 7.9 km/h 11.3 km/h 74% 0.0 mm 160 W/m2
11:41 16.9 °C 11.6 °C 1018.6 hPa NNW 4.7 km/h 8 km/h 71% 0.0 mm 135 W/m2
11:46 17.1 °C 11.6 °C 1018.6 hPa SSW 6.4 km/h 9.7 km/h 70% 0.0 mm 872 W/m2
11:51 17.6 °C 12.1 °C 1018.3 hPa SW 4.7 km/h 6.4 km/h 70% 0.0 mm 886 W/m2
11:56 18 °C 12.4 °C 1018.3 hPa NW 1.4 km/h 6.4 km/h 70% 0.0 mm 907 W/m2
12:01 18.4 °C 12.6 °C 1018.3 hPa West 6.4 km/h 6.4 km/h 69% 0.0 mm 949 W/m2
12:06 18.8 °C 11.6 °C 1018.6 hPa West 6.4 km/h 14.5 km/h 63% 0.0 mm 984 W/m2
12:11 18.8 °C 11.8 °C 1018.6 hPa WSW 7.9 km/h 20.9 km/h 64% 0.0 mm 954 W/m2
12:16 18.8 °C 12.1 °C 1018.6 hPa NW 13 km/h 12.9 km/h 65% 0.0 mm 1000 W/m2
12:21 18.6 °C 11.7 °C 1018.6 hPa NNW 4.7 km/h 20.9 km/h 64% 0.0 mm 1000 W/m2
12:26 18.7 °C 12.2 °C 1018.6 hPa SW 3.2 km/h 6.4 km/h 66% 0.0 mm 1060 W/m2
12:31 18.8 °C 11.4 °C 1018.6 hPa WSW 4.7 km/h 12.9 km/h 62% 0.0 mm 190 W/m2
12:36 18.7 °C 11.3 °C 1018.6 hPa WNW 1.4 km/h 8 km/h 62% 0.0 mm 956 W/m2
12:42 18.6 °C 11.4 °C 1018.6 hPa West 4.7 km/h 12.9 km/h 63% 0.0 mm 156 W/m2
12:47 18.3 °C 11.1 °C 1018.6 hPa WNW 3.2 km/h 11.3 km/h 63% 0.0 mm 165 W/m2
12:52 18.4 °C 11 °C 1018.6 hPa WSW 4.7 km/h 8 km/h 62% 0.0 mm 142 W/m2
12:57 18.7 °C 11.5 °C 1018.6 hPa ENE 1.4 km/h 4.8 km/h 63% 0.0 mm 461 W/m2
13:02 19.2 °C 11.5 °C 1018.3 hPa NE 6.4 km/h 8 km/h 61% 0.0 mm 506 W/m2
13:07 19.7 °C 11.2 °C 1018.6 hPa WNW 4.7 km/h 8 km/h 58% 0.0 mm 1188 W/m2
13:12 19.7 °C 11.2 °C 1018.6 hPa WNW 6.4 km/h 12.9 km/h 58% 0.0 mm 907 W/m2
13:17 19.4 °C 11.2 °C 1018.6 hPa WSW 6.4 km/h 11.3 km/h 59% 0.0 mm 297 W/m2
13:22 19.3 °C 11.1 °C 1018.6 hPa WSW 11.1 km/h 11.3 km/h 59% 0.0 mm 318 W/m2
13:27 19 °C 10.3 °C 1018.6 hPa West 1.4 km/h 12.9 km/h 57% 0.0 mm 371 W/m2
13:32 19.2 °C 11.2 °C 1018.6 hPa WNW 11.1 km/h 12.9 km/h 60% 0.0 mm 979 W/m2
13:37 19.3 °C 11.3 °C 1018.6 hPa SW 4.7 km/h 11.3 km/h 60% 0.0 mm 965 W/m2
13:42 19.8 °C 11.6 °C 1018.6 hPa NW 3.2 km/h 6.4 km/h 59% 0.0 mm 960 W/m2
13:47 19.9 °C 10 °C 1018.6 hPa West 1.4 km/h 6.4 km/h 53% 0.0 mm 1127 W/m2
13:52 19.8 °C 10.5 °C 1018.3 hPa NNW 3.2 km/h 8 km/h 55% 0.0 mm 1130 W/m2
13:57 19.9 °C 10.3 °C 1018.3 hPa South 1.4 km/h 9.7 km/h 54% 0.0 mm 313 W/m2
14:02 20 °C 11 °C 1018.6 hPa WNW 11.1 km/h 12.9 km/h 56% 0.0 mm 1092 W/m2
14:07 20.2 °C 11.1 °C 1018.3 hPa SW 4.7 km/h 11.3 km/h 56% 0.0 mm 972 W/m2
14:12 20.2 °C 10.6 °C 1018.6 hPa West 9.7 km/h 14.5 km/h 54% 0.0 mm 1005 W/m2
14:17 20.1 °C 10.5 °C 1018.3 hPa West 4.7 km/h 16.1 km/h 54% 0.0 mm 234 W/m2
14:22 19.8 °C 10.8 °C 1018.6 hPa WNW 4.7 km/h 6.4 km/h 56% 0.0 mm 243 W/m2
14:27 19.7 °C 10.7 °C 1018.6 hPa NW 6.4 km/h 16.1 km/h 56% 0.0 mm 809 W/m2
14:32 19.9 °C 11.1 °C 1018.6 hPa WSW 1.4 km/h 3.2 km/h 57% 0.0 mm 176 W/m2
14:37 20.1 °C 10.5 °C 1018.6 hPa NW 4.7 km/h 12.9 km/h 54% 0.0 mm 1009 W/m2
14:42 20.3 °C 10.4 °C 1018.6 hPa WNW 11.1 km/h 12.9 km/h 53% 0.0 mm 1005 W/m2
14:47 20.5 °C 10.6 °C 1018.6 hPa SW 4.7 km/h 6.4 km/h 53% 0.0 mm 1046 W/m2
14:52 20.5 °C 9.7 °C 1018.6 hPa ESE 1.4 km/h 4.8 km/h 50% 0.0 mm 225 W/m2
14:57 20.4 °C 10.2 °C 1018.6 hPa West 4.7 km/h 9.7 km/h 52% 0.0 mm 260 W/m2
15:02 20.6 °C 11 °C 1018.6 hPa WNW 11.1 km/h 17.7 km/h 54% 0.0 mm 1114 W/m2
15:07 20.9 °C 11 °C 1018.6 hPa WSW 6.4 km/h 14.5 km/h 53% 0.0 mm 1071 W/m2
15:12 21.1 °C 10.3 °C 1018.3 hPa WNW 6.4 km/h 17.7 km/h 50% 0.0 mm 287 W/m2
15:17 21.2 °C 10.4 °C 1018.6 hPa WNW 7.9 km/h 11.3 km/h 50% 0.0 mm 1055 W/m2
15:22 21.3 °C 9.8 °C 1018.6 hPa WNW 3.2 km/h 6.4 km/h 48% 0.0 mm 367 W/m2
15:27 21.4 °C 10.5 °C 1018.6 hPa NW 7.9 km/h 16.1 km/h 50% 0.0 mm 993 W/m2
15:32 21.3 °C 11.3 °C 1019.0 hPa NW 20.9 km/h 20.9 km/h 53% 0.0 mm 993 W/m2
15:37 20.7 °C 11.3 °C 1019.0 hPa West 17.7 km/h 19.3 km/h 55% 0.0 mm 1046 W/m2
15:42 20.8 °C 11.4 °C 1019.0 hPa West 9.7 km/h 17.7 km/h 55% 0.0 mm 1028 W/m2
15:47 20.7 °C 11.1 °C 1019.0 hPa WNW 14.3 km/h 17.7 km/h 54% 0.0 mm 318 W/m2
15:52 20.3 °C 10.7 °C 1019.0 hPa West 9.7 km/h 12.9 km/h 54% 0.0 mm 244 W/m2
15:57 20 °C 10.7 °C 1019.0 hPa WSW 14.3 km/h 22.5 km/h 55% 0.0 mm 250 W/m2
16:02 19.6 °C 10.6 °C 1019.0 hPa West 11.1 km/h 17.7 km/h 56% 0.0 mm 294 W/m2
16:07 19.3 °C 10.3 °C 1019.0 hPa West 4.7 km/h 16.1 km/h 56% 0.0 mm 364 W/m2
16:12 19.4 °C 10.7 °C 1019.0 hPa West 13 km/h 14.5 km/h 57% 0.0 mm 397 W/m2
16:17 19.6 °C 10.8 °C 1019.0 hPa WNW 11.1 km/h 12.9 km/h 57% 0.0 mm 990 W/m2
16:22 20.1 °C 11 °C 1019.0 hPa WNW 1.4 km/h 14.5 km/h 56% 0.0 mm 830 W/m2
16:27 20.6 °C 11 °C 1019.3 hPa NW 4.7 km/h 12.9 km/h 54% 0.0 mm 784 W/m2
16:32 20.8 °C 10 °C 1019.0 hPa NW 11.1 km/h 14.5 km/h 50% 0.0 mm 758 W/m2
16:37 20.9 °C 9.8 °C 1019.0 hPa WNW 6.4 km/h 12.9 km/h 49% 0.0 mm 749 W/m2
16:42 21 °C 9.9 °C 1019.3 hPa WNW 6.4 km/h 16.1 km/h 49% 0.0 mm 745 W/m2
16:47 21.1 °C 10.3 °C 1019.0 hPa NW 6.4 km/h 14.5 km/h 50% 0.0 mm 766 W/m2
16:52 21.2 °C 10.1 °C 1019.0 hPa WNW 4.7 km/h 11.3 km/h 49% 0.0 mm 726 W/m2
16:57 21.2 °C 9.8 °C 1019.0 hPa WNW 9.7 km/h 17.7 km/h 48% 0.0 mm 729 W/m2
17:02 21.1 °C 10 °C 1019.3 hPa WSW 4.7 km/h 9.7 km/h 49% 0.0 mm 740 W/m2
17:07 21.1 °C 10 °C 1019.0 hPa NW 1.4 km/h 6.4 km/h 49% 0.0 mm 789 W/m2
17:12 21.2 °C 9.8 °C 1019.3 hPa NW 4.7 km/h 8 km/h 48% 0.0 mm 172 W/m2
17:17 21.2 °C 9.8 °C 1019.3 hPa NW 7.9 km/h 17.7 km/h 48% 0.0 mm 153 W/m2
17:22 21 °C 9.9 °C 1019.3 hPa WSW 7.9 km/h 9.7 km/h 49% 0.0 mm 171 W/m2
17:27 20.7 °C 9.9 °C 1019.3 hPa WNW 6.4 km/h 17.7 km/h 50% 0.0 mm 251 W/m2
17:32 20.8 °C 10.3 °C 1019.3 hPa West 4.7 km/h 16.1 km/h 51% 0.0 mm 227 W/m2
17:37 20.8 °C 10 °C 1019.3 hPa ENE 3.2 km/h 6.4 km/h 50% 0.0 mm 174 W/m2
17:42 20.8 °C 10 °C 1019.3 hPa SSW 1.4 km/h 14.5 km/h 50% 0.0 mm 190 W/m2
17:47 20.6 °C 10.1 °C 1019.3 hPa SSW 4.7 km/h 9.7 km/h 51% 0.0 mm 225 W/m2
17:52 20.5 °C 10 °C 1019.3 hPa WSW 3.2 km/h 12.9 km/h 51% 0.0 mm 193 W/m2
17:57 20.6 °C 10.4 °C 1019.3 hPa West 3.2 km/h 6.4 km/h 52% 0.0 mm 246 W/m2
18:02 20.7 °C 10.8 °C 1019.3 hPa Calm   3.2 km/h 53% 0.0 mm 700 W/m2
18:07 21.1 °C 10.6 °C 1019.3 hPa NW 3.2 km/h 4.8 km/h 51% 0.0 mm 647 W/m2
18:12 21.7 °C 11.1 °C 1019.3 hPa WNW 3.2 km/h 9.7 km/h 51% 0.0 mm 554 W/m2
18:17 21.9 °C 9.8 °C 1019.3 hPa WNW 4.7 km/h 16.1 km/h 46% 0.0 mm 517 W/m2
18:22 21.7 °C 9.9 °C 1019.0 hPa WNW 4.7 km/h 12.9 km/h 47% 0.0 mm 492 W/m2
18:27 21.6 °C 10.1 °C 1019.3 hPa NW 6.4 km/h 16.1 km/h 48% 0.0 mm 464 W/m2
18:32 21.6 °C 10.4 °C 1019.3 hPa West 3.2 km/h 12.9 km/h 49% 0.0 mm 429 W/m2
18:37 21.6 °C 10.4 °C 1019.3 hPa WSW 4.7 km/h 9.7 km/h 49% 0.0 mm 397 W/m2
18:42 21.6 °C 10.4 °C 1019.3 hPa WNW 3.2 km/h 4.8 km/h 49% 0.0 mm 397 W/m2
18:47 21.3 °C 10.5 °C 1019.3 hPa WSW 6.4 km/h 8 km/h 50% 0.0 mm 76 W/m2
18:52 21.1 °C 10.6 °C 1019.3 hPa WNW 4.7 km/h 6.4 km/h 51% 0.0 mm 323 W/m2
18:57 21.2 °C 10.4 °C 1019.3 hPa WNW 4.7 km/h 4.8 km/h 50% 0.0 mm 86 W/m2
19:02 21.3 °C 10.5 °C 1019.3 hPa WSW 3.2 km/h 14.5 km/h 50% 0.0 mm 79 W/m2
19:07 21.2 °C 10.4 °C 1019.3 hPa WSW 3.2 km/h 8 km/h 50% 0.0 mm 49 W/m2
19:12 21.3 °C 10.8 °C 1019.3 hPa WNW 1.4 km/h 14.5 km/h 51% 0.0 mm 65 W/m2
19:17 21.4 °C 10.5 °C 1019.3 hPa West 13 km/h 12.9 km/h 50% 0.0 mm 63 W/m2
19:22 21.3 °C 10.5 °C 1019.3 hPa WSW 4.7 km/h 6.4 km/h 50% 0.0 mm 74 W/m2
19:27 21.6 °C 10.4 °C 1019.3 hPa WNW 4.7 km/h 9.7 km/h 49% 0.0 mm 98 W/m2
19:32 21.7 °C 10.5 °C 1019.3 hPa West 9.7 km/h 9.7 km/h 49% 0.0 mm 98 W/m2
19:37 21.4 °C 10.5 °C 1019.3 hPa NW 7.9 km/h 12.9 km/h 50% 0.0 mm 81 W/m2
19:42 21 °C 10.5 °C 1019.6 hPa West 9.7 km/h 14.5 km/h 51% 0.0 mm 60 W/m2
19:47 20.6 °C 10.4 °C 1019.6 hPa West 9.7 km/h 11.3 km/h 52% 0.0 mm 40 W/m2
19:52 20.2 °C 10.3 °C 1019.6 hPa WSW 6.4 km/h 12.9 km/h 53% 0.0 mm 44 W/m2
19:57 19.9 °C 10 °C 1019.6 hPa West 3.2 km/h 6.4 km/h 53% 0.0 mm 39 W/m2
20:02 19.7 °C 10.1 °C 1019.6 hPa West 6.4 km/h 6.4 km/h 54% 0.0 mm 40 W/m2
20:07 19.5 °C 10.2 °C 1019.6 hPa SW 3.2 km/h 4.8 km/h 55% 0.0 mm 37 W/m2
20:12 19.3 °C 10 °C 1019.6 hPa West 1.4 km/h 4.8 km/h 55% 0.0 mm 33 W/m2
20:17 19.2 °C 10.2 °C 1019.6 hPa West 3.2 km/h 4.8 km/h 56% 0.0 mm 33 W/m2
20:22 19.1 °C 10.4 °C 1019.6 hPa West 1.4 km/h 3.2 km/h 57% 0.0 mm 35 W/m2
20:27 18.9 °C 10.5 °C 1019.6 hPa West 1.4 km/h 3.2 km/h 58% 0.0 mm 28 W/m2
20:32 18.8 °C 10.4 °C 1019.6 hPa SW 1.4 km/h 8 km/h 58% 0.0 mm 23 W/m2
20:37 18.7 °C 10.5 °C 1019.6 hPa WSW 3.2 km/h 4.8 km/h 59% 0.0 mm 19 W/m2
20:42 18.6 °C 10.7 °C 1019.6 hPa WSW 1.4 km/h 8 km/h 60% 0.0 mm 19 W/m2
20:47 18.5 °C 10.6 °C 1019.6 hPa WSW 1.4 km/h 3.2 km/h 60% 0.0 mm 18 W/m2
20:52 18.4 °C 10.5 °C 1019.6 hPa West 4.7 km/h 6.4 km/h 60% 0.0 mm 49 W/m2
20:57 18.5 °C 10.6 °C 1019.6 hPa West 4.7 km/h 6.4 km/h 60% 0.0 mm 53 W/m2
21:02 18.7 °C 10.5 °C 1020.0 hPa West 4.7 km/h 4.8 km/h 59% 0.0 mm 44 W/m2
21:07 18.8 °C 10.4 °C 1020.0 hPa WSW 4.7 km/h 4.8 km/h 58% 0.0 mm 37 W/m2
21:12 18.9 °C 10.5 °C 1020.0 hPa WSW 4.7 km/h 4.8 km/h 58% 0.0 mm 30 W/m2
21:17 18.9 °C 10.5 °C 1020.0 hPa WSW 3.2 km/h 3.2 km/h 58% 0.0 mm 14 W/m2
21:22 18.8 °C 10.4 °C 1020.0 hPa West 3.2 km/h 6.4 km/h 58% 0.0 mm 12 W/m2
21:27 18.6 °C 10.4 °C 1020.0 hPa West 1.4 km/h 6.4 km/h 59% 0.0 mm 11 W/m2
21:32 18.5 °C 10.6 °C 1020.3 hPa WSW 1.4 km/h 3.2 km/h 60% 0.0 mm 7 W/m2
21:37 18.3 °C 10.6 °C 1020.3 hPa Calm   6.4 km/h 61% 0.0 mm 5 W/m2
21:42 18.2 °C 10.6 °C 1020.3 hPa WSW 3.2 km/h 4.8 km/h 61% 0.0 mm 5 W/m2
21:47 18 °C 10.6 °C 1020.3 hPa WSW 1.4 km/h 3.2 km/h 62% 0.0 mm 0 W/m2
21:52 17.8 °C 10.9 °C 1020.3 hPa Calm     64% 0.0 mm 0 W/m2
21:57 17.6 °C 10.9 °C 1020.7 hPa Calm   1.6 km/h 65% 0.0 mm 0 W/m2
22:02 17.4 °C 11 °C 1020.7 hPa Calm     66% 0.0 mm 0 W/m2
22:07 17.2 °C 11 °C 1020.7 hPa WSW 3.2 km/h 3.2 km/h 67% 0.0 mm 0 W/m2
22:12 16.9 °C 11 °C 1020.7 hPa West 1.4 km/h 3.2 km/h 68% 0.0 mm 0 W/m2
22:17 16.7 °C 10.8 °C 1020.7 hPa Calm   3.2 km/h 68% 0.0 mm 0 W/m2
22:22 16.6 °C 10.9 °C 1020.7 hPa Calm     69% 0.0 mm 0 W/m2
22:27 16.4 °C 10.9 °C 1020.7 hPa Calm     70% 0.0 mm 0 W/m2
22:32 16.3 °C 10.8 °C 1020.7 hPa Calm     70% 0.0 mm 0 W/m2
22:37 16.1 °C 10.6 °C 1020.7 hPa Calm     70% 0.0 mm 0 W/m2
22:42 15.9 °C 10.6 °C 1021.0 hPa Calm     71% 0.0 mm 0 W/m2
22:47 15.8 °C 10.8 °C 1021.0 hPa Calm     72% 0.0 mm 0 W/m2
22:52 15.6 °C 10.6 °C 1021.0 hPa Calm     72% 0.0 mm 0 W/m2
22:57 15.4 °C 10.6 °C 1021.0 hPa Calm     73% 0.0 mm 0 W/m2
23:02 15.3 °C 10.7 °C 1021.0 hPa Calm     74% 0.0 mm 0 W/m2
23:07 15.2 °C 10.6 °C 1021.0 hPa Calm     74% 0.0 mm 0 W/m2
23:12 15 °C 10.6 °C 1021.0 hPa Calm     75% 0.0 mm 0 W/m2
23:17 14.9 °C 10.7 °C 1021.0 hPa Calm     76% 0.0 mm 0 W/m2
23:22 14.8 °C 10.6 °C 1021.0 hPa Calm     76% 0.0 mm 0 W/m2
23:27 14.7 °C 10.5 °C 1021.3 hPa Calm     76% 0.0 mm 0 W/m2
23:32 14.6 °C 10.4 °C 1021.3 hPa Calm     76% 0.0 mm 0 W/m2
23:37 14.6 °C 10.4 °C 1021.3 hPa Calm     76% 0.0 mm 0 W/m2
23:42 14.4 °C 10.2 °C 1021.3 hPa Calm     76% 0.0 mm 0 W/m2
23:47 14.3 °C 10.1 °C 1021.3 hPa Calm     76% 0.0 mm 0 W/m2
23:52 14.3 °C 10.3 °C 1021.3 hPa Calm     77% 0.0 mm 0 W/m2
23:57 14.2 °C 10.2 °C 1021.3 hPa Calm     77% 0.0 mm 0 W/m2
Juneau County Weather
Compliments of Weather Underground - 4 mb